logo

United by the hobby
of model aircraft flying

Promoting safe
radio model flying

Sharing the experience
of RC flying

Dedicated to the sport of model aviation

Meeting
Venue

Third Monday Each Month
Crown Point Civic Center
101 S East Street
Crown Point, IN 46307

Read More

email:
[javascript protected email address]

View our events calendar

2020

Weather Conditions

Elev 730 ft    41.19°N  87.16°W

43.0 °F
200°
9 m/h
Wind Variable Wind from SSW

Current Conditions

Pressure 29.89 in
Visibility 10 miles
Clouds Overcast
Dew Point 39.9 °F
Humidity 88 %
Rainfall 0.43 in
 
METAR KVPZ 250711Z AUTO 20008KT 10SM OVC014 06/04 A2989 RMK AO2 T00610044

Forecast

INFORMATION PROVIDED BY THE INDIANA STATE FORECAST - NATIONAL WEATHER SERVICE
Sunrise & Sunset
November 25, 2020
6:53 AM

4:23 PM
High 43 | Low 30°F
November 26, 2020
6:54 AM

4:23 PM
High | Low °F
 

our gallery

View All